PAA441 RCKH-VHHX
Flight info
| Callsign | PAA441 |
|---|---|
| Flight time | 1h 20m |
| Altitude | 38000 |
| Route | PARAS2A PARAS T7 WP521 G581 MAGOG |
| Aircraft | L101/H-SDFGHIRWXY/S |
Departure
| Time | 2026-04-27 21:29 |
|---|---|
| Airport | Kaohsiung International Airport (RCKH) |
Arrival
| Time | 2026-04-27 22:50 |
|---|---|
| Airport | Hong Kong International Airport Kai Tak (VHHX) |
| Time | Latitude | Longitude | Altitude | Speed | Heading |
|---|---|---|---|---|---|
| 2026-04-27 20:44 | 22.57205 | 120.33859 | 42 ft | 0 kts | 90° |
| 2026-04-27 21:18 | 22.57205 | 120.33841 | 42 ft | 3 kts | 86° |
| 2026-04-27 21:19 | 22.57202 | 120.33812 | 43 ft | 3 kts | 85° |
| 2026-04-27 21:19 | 22.57204 | 120.33785 | 42 ft | 3 kts | 122° |
| 2026-04-27 21:19 | 22.57219 | 120.33766 | 40 ft | 3 kts | 156° |
| 2026-04-27 21:20 | 22.57269 | 120.33769 | 41 ft | 3 kts | 177° |
| 2026-04-27 21:20 | 22.57296 | 120.33769 | 41 ft | 3 kts | 185° |
| 2026-04-27 21:20 | 22.57323 | 120.33771 | 42 ft | 3 kts | 182° |
| 2026-04-27 21:20 | 22.57350 | 120.33772 | 41 ft | 3 kts | 182° |
| 2026-04-27 21:21 | 22.57377 | 120.33774 | 42 ft | 3 kts | 189° |
| 2026-04-27 21:21 | 22.57402 | 120.33782 | 40 ft | 3 kts | 217° |
| 2026-04-27 21:21 | 22.57417 | 120.33803 | 41 ft | 3 kts | 264° |
| 2026-04-27 21:21 | 22.57417 | 120.33809 | 39 ft | 8 kts | 271° |
| 2026-04-27 21:25 | 22.57417 | 120.33807 | 43 ft | 2 kts | 271° |
| 2026-04-27 21:26 | 22.57418 | 120.33776 | 43 ft | 7 kts | 271° |
| 2026-04-27 21:26 | 22.57422 | 120.33708 | 43 ft | 11 kts | 278° |
| 2026-04-27 21:26 | 22.57475 | 120.33636 | 43 ft | 14 kts | 316° |
| 2026-04-27 21:26 | 22.57558 | 120.33552 | 42 ft | 18 kts | 317° |
| 2026-04-27 21:27 | 22.57638 | 120.33506 | 43 ft | 0 kts | 354° |
| 2026-04-27 21:27 | 22.57647 | 120.33505 | 43 ft | 4 kts | 355° |
| 2026-04-27 21:27 | 22.57691 | 120.33503 | 42 ft | 9 kts | 359° |
| 2026-04-27 21:28 | 22.57744 | 120.33520 | 43 ft | 7 kts | 54° |
| 2026-04-27 21:28 | 22.57751 | 120.33554 | 43 ft | 0 kts | 87° |
| 2026-04-27 21:28 | 22.57747 | 120.33782 | 44 ft | 60 kts | 91° |
| 2026-04-27 21:29 | 22.57731 | 120.34385 | 45 ft | 97 kts | 91° |
| 2026-04-27 21:29 | 22.57701 | 120.35290 | 45 ft | 148 kts | 92° |
| 2026-04-27 21:29 | 22.57649 | 120.36468 | 502 ft | 162 kts | 92° |
| 2026-04-27 21:29 | 22.57586 | 120.37712 | 1050 ft | 168 kts | 92° |
| 2026-04-27 21:30 | 22.57530 | 120.38983 | 1634 ft | 171 kts | 92° |
| 2026-04-27 21:30 | 22.57477 | 120.40266 | 2287 ft | 171 kts | 92° |
| 2026-04-27 21:30 | 22.57421 | 120.41616 | 2967 ft | 196 kts | 92° |
| 2026-04-27 21:30 | 22.57271 | 120.43150 | 3481 ft | 212 kts | 105° |
| 2026-04-27 21:31 | 22.56483 | 120.44483 | 3859 ft | 219 kts | 137° |
| 2026-04-27 21:31 | 22.55108 | 120.45188 | 4204 ft | 224 kts | 168° |
| 2026-04-27 21:31 | 22.53560 | 120.45015 | 4458 ft | 227 kts | 200° |
| 2026-04-27 21:31 | 22.52264 | 120.44053 | 4808 ft | 228 kts | 220° |
| 2026-04-27 21:32 | 22.51264 | 120.42715 | 5172 ft | 234 kts | 236° |
| 2026-04-27 21:32 | 22.50401 | 120.41075 | 5565 ft | 263 kts | 240° |
| 2026-04-27 21:32 | 22.49552 | 120.39277 | 5858 ft | 272 kts | 242° |
| 2026-04-27 21:32 | 22.48726 | 120.37452 | 6162 ft | 274 kts | 242° |
| 2026-04-27 21:33 | 22.47896 | 120.35556 | 6487 ft | 276 kts | 242° |
| 2026-04-27 21:33 | 22.47093 | 120.33701 | 6776 ft | 276 kts | 241° |
| 2026-04-27 21:33 | 22.46067 | 120.31945 | 7082 ft | 276 kts | 231° |
| 2026-04-27 21:33 | 22.44847 | 120.30345 | 7392 ft | 276 kts | 227° |
| 2026-04-27 21:34 | 22.43559 | 120.28807 | 7716 ft | 276 kts | 225° |
| 2026-04-27 21:34 | 22.42243 | 120.27294 | 8019 ft | 277 kts | 225° |
| 2026-04-27 21:34 | 22.40904 | 120.25783 | 8334 ft | 278 kts | 225° |
| 2026-04-27 21:34 | 22.39558 | 120.24279 | 8650 ft | 279 kts | 225° |
| 2026-04-27 21:35 | 22.38203 | 120.22776 | 8959 ft | 280 kts | 225° |
| 2026-04-27 21:35 | 22.36821 | 120.21282 | 9294 ft | 281 kts | 223° |
| 2026-04-27 21:35 | 22.35407 | 120.19863 | 9624 ft | 282 kts | 221° |
| 2026-04-27 21:35 | 22.33925 | 120.18460 | 9909 ft | 286 kts | 220° |
| 2026-04-27 21:36 | 22.32416 | 120.17076 | 10183 ft | 284 kts | 222° |
| 2026-04-27 21:36 | 22.31162 | 120.15427 | 10467 ft | 291 kts | 241° |
| 2026-04-27 21:36 | 22.30356 | 120.13246 | 10817 ft | 335 kts | 251° |
| 2026-04-27 21:36 | 22.29627 | 120.10735 | 11115 ft | 361 kts | 251° |
| 2026-04-27 21:37 | 22.28807 | 120.08142 | 11405 ft | 369 kts | 250° |
| 2026-04-27 21:37 | 22.27976 | 120.05539 | 11709 ft | 372 kts | 251° |
| 2026-04-27 21:37 | 22.27226 | 120.02881 | 12023 ft | 359 kts | 253° |
| 2026-04-27 21:37 | 22.26641 | 120.00327 | 12356 ft | 347 kts | 256° |
| 2026-04-27 21:38 | 22.26111 | 119.97799 | 12691 ft | 345 kts | 256° |
| 2026-04-27 21:38 | 22.25558 | 119.95286 | 13018 ft | 345 kts | 255° |
| 2026-04-27 21:38 | 22.24979 | 119.92769 | 13353 ft | 346 kts | 255° |
| 2026-04-27 21:38 | 22.24404 | 119.90246 | 13676 ft | 347 kts | 255° |
| 2026-04-27 21:39 | 22.23850 | 119.87739 | 13980 ft | 348 kts | 256° |
| 2026-04-27 21:39 | 22.23300 | 119.85187 | 14278 ft | 350 kts | 256° |
| 2026-04-27 21:39 | 22.22753 | 119.82628 | 14586 ft | 351 kts | 256° |
| 2026-04-27 21:39 | 22.22202 | 119.80054 | 14883 ft | 352 kts | 256° |
| 2026-04-27 21:40 | 22.21648 | 119.77478 | 15192 ft | 353 kts | 256° |
| 2026-04-27 21:40 | 22.21091 | 119.74894 | 15498 ft | 354 kts | 256° |
| 2026-04-27 21:40 | 22.20532 | 119.72299 | 15824 ft | 356 kts | 256° |
| 2026-04-27 21:40 | 22.19967 | 119.69692 | 16128 ft | 357 kts | 256° |
| 2026-04-27 21:41 | 22.19406 | 119.67111 | 16436 ft | 359 kts | 256° |
| 2026-04-27 21:41 | 22.18835 | 119.64483 | 16731 ft | 361 kts | 256° |
| 2026-04-27 21:41 | 22.18263 | 119.61840 | 16892 ft | 363 kts | 256° |
| 2026-04-27 21:41 | 22.17690 | 119.59191 | 16956 ft | 363 kts | 256° |
| 2026-04-27 21:42 | 22.17115 | 119.56535 | 16956 ft | 364 kts | 256° |
| 2026-04-27 21:42 | 22.16594 | 119.53865 | 16929 ft | 364 kts | 260° |
| 2026-04-27 21:42 | 22.16351 | 119.51143 | 16759 ft | 366 kts | 266° |
| 2026-04-27 21:42 | 22.16279 | 119.48407 | 16390 ft | 364 kts | 267° |
| 2026-04-27 21:43 | 22.16199 | 119.45726 | 16022 ft | 362 kts | 266° |
| 2026-04-27 21:43 | 22.16070 | 119.43023 | 15666 ft | 360 kts | 265° |
| 2026-04-27 21:43 | 22.15934 | 119.40335 | 15313 ft | 358 kts | 265° |
| 2026-04-27 21:43 | 22.15824 | 119.37663 | 14955 ft | 356 kts | 266° |
| 2026-04-27 21:44 | 22.15740 | 119.34994 | 14607 ft | 355 kts | 266° |
| 2026-04-27 21:44 | 22.15668 | 119.32341 | 14272 ft | 353 kts | 266° |
| 2026-04-27 21:44 | 22.15596 | 119.29701 | 14101 ft | 351 kts | 266° |
| 2026-04-27 21:44 | 22.15522 | 119.27070 | 13997 ft | 351 kts | 266° |
| 2026-04-27 21:45 | 22.15448 | 119.24481 | 13962 ft | 350 kts | 266° |
| 2026-04-27 21:45 | 22.15373 | 119.21856 | 13936 ft | 349 kts | 266° |
| 2026-04-27 21:45 | 22.15300 | 119.19243 | 13938 ft | 349 kts | 266° |
| 2026-04-27 21:45 | 22.15227 | 119.16623 | 13932 ft | 349 kts | 266° |
| 2026-04-27 21:46 | 22.15154 | 119.14019 | 14109 ft | 347 kts | 266° |
| 2026-04-27 21:46 | 22.15085 | 119.11417 | 14469 ft | 349 kts | 268° |
| 2026-04-27 21:46 | 22.15151 | 119.08786 | 14830 ft | 352 kts | 272° |
| 2026-04-27 21:46 | 22.15406 | 119.06188 | 15171 ft | 354 kts | 275° |
| 2026-04-27 21:47 | 22.15733 | 119.03544 | 15526 ft | 356 kts | 276° |
| 2026-04-27 21:47 | 22.16049 | 119.00892 | 15881 ft | 358 kts | 275° |
| 2026-04-27 21:47 | 22.16352 | 118.98215 | 16247 ft | 360 kts | 275° |
| 2026-04-27 21:47 | 22.16662 | 118.95536 | 16621 ft | 362 kts | 275° |
| 2026-04-27 21:48 | 22.16976 | 118.92837 | 16991 ft | 363 kts | 275° |
| 2026-04-27 21:48 | 22.17287 | 118.90128 | 17372 ft | 365 kts | 275° |
| 2026-04-27 21:48 | 22.17602 | 118.87405 | 17753 ft | 367 kts | 276° |
| 2026-04-27 21:48 | 22.17922 | 118.84681 | 18138 ft | 369 kts | 276° |
| 2026-04-27 21:49 | 22.18246 | 118.81951 | 18474 ft | 371 kts | 276° |
| 2026-04-27 21:49 | 22.18576 | 118.79187 | 18817 ft | 373 kts | 276° |
| 2026-04-27 21:49 | 22.18911 | 118.76367 | 19153 ft | 383 kts | 276° |
| 2026-04-27 21:49 | 22.19250 | 118.73504 | 19500 ft | 387 kts | 276° |
| 2026-04-27 21:50 | 22.19592 | 118.70625 | 19840 ft | 389 kts | 276° |
| 2026-04-27 21:50 | 22.19937 | 118.67722 | 20198 ft | 391 kts | 276° |
| 2026-04-27 21:50 | 22.20284 | 118.64794 | 20558 ft | 393 kts | 276° |
| 2026-04-27 21:50 | 22.20631 | 118.61868 | 20913 ft | 395 kts | 276° |
| 2026-04-27 21:51 | 22.20979 | 118.58923 | 21278 ft | 396 kts | 276° |
| 2026-04-27 21:51 | 22.21323 | 118.56002 | 21646 ft | 398 kts | 276° |
| 2026-04-27 21:51 | 22.21672 | 118.53042 | 22016 ft | 400 kts | 276° |
| 2026-04-27 21:51 | 22.22024 | 118.50045 | 22390 ft | 402 kts | 276° |
| 2026-04-27 21:52 | 22.22371 | 118.47048 | 22781 ft | 404 kts | 276° |
| 2026-04-27 21:52 | 22.22717 | 118.44027 | 23170 ft | 406 kts | 276° |
| 2026-04-27 21:52 | 22.23066 | 118.40999 | 23543 ft | 408 kts | 276° |
| 2026-04-27 21:52 | 22.23420 | 118.37954 | 23879 ft | 410 kts | 276° |
| 2026-04-27 21:53 | 22.23777 | 118.34891 | 24222 ft | 412 kts | 276° |
| 2026-04-27 21:53 | 22.24129 | 118.31871 | 24551 ft | 413 kts | 276° |
| 2026-04-27 21:53 | 22.24489 | 118.28784 | 24747 ft | 415 kts | 276° |
| 2026-04-27 21:53 | 22.24847 | 118.25701 | 24856 ft | 416 kts | 276° |
| 2026-04-27 21:54 | 22.25209 | 118.22585 | 24891 ft | 416 kts | 276° |
| 2026-04-27 21:54 | 22.25568 | 118.19487 | 24911 ft | 417 kts | 276° |
| 2026-04-27 21:54 | 22.25927 | 118.16379 | 24917 ft | 417 kts | 276° |
| 2026-04-27 21:54 | 22.26281 | 118.13289 | 25091 ft | 416 kts | 276° |
| 2026-04-27 21:55 | 22.26624 | 118.10185 | 25331 ft | 417 kts | 276° |
| 2026-04-27 21:55 | 22.26960 | 118.07065 | 25570 ft | 418 kts | 276° |
| 2026-04-27 21:55 | 22.27290 | 118.04006 | 25791 ft | 420 kts | 276° |
| 2026-04-27 21:55 | 22.27674 | 118.00884 | 26025 ft | 421 kts | 278° |
| 2026-04-27 21:56 | 22.28110 | 117.97729 | 26261 ft | 422 kts | 277° |
| 2026-04-27 21:56 | 22.28782 | 117.91418 | 26734 ft | 424 kts | 275° |
| 2026-04-27 21:56 | 22.29094 | 117.88255 | 26981 ft | 426 kts | 276° |
| 2026-04-27 21:57 | 22.29438 | 117.85065 | 27232 ft | 427 kts | 276° |
| 2026-04-27 21:57 | 22.29801 | 117.81878 | 27478 ft | 429 kts | 277° |
| 2026-04-27 21:57 | 22.30169 | 117.78683 | 27720 ft | 430 kts | 277° |
| 2026-04-27 21:57 | 22.30535 | 117.75471 | 27981 ft | 432 kts | 277° |
| 2026-04-27 21:58 | 22.30894 | 117.72293 | 28227 ft | 433 kts | 277° |
| 2026-04-27 21:58 | 22.31259 | 117.69062 | 28479 ft | 435 kts | 277° |
| 2026-04-27 21:58 | 22.31626 | 117.65816 | 28743 ft | 436 kts | 277° |
| 2026-04-27 21:58 | 22.31994 | 117.62565 | 29012 ft | 437 kts | 277° |
| 2026-04-27 21:59 | 22.32364 | 117.59298 | 29266 ft | 439 kts | 277° |
| 2026-04-27 21:59 | 22.32734 | 117.56022 | 29537 ft | 441 kts | 277° |
| 2026-04-27 21:59 | 22.33098 | 117.52735 | 29926 ft | 442 kts | 276° |
| 2026-04-27 21:59 | 22.33283 | 117.49418 | 30279 ft | 444 kts | 271° |
| 2026-04-27 22:00 | 22.33233 | 117.46061 | 30620 ft | 447 kts | 269° |
| 2026-04-27 22:00 | 22.33140 | 117.42738 | 30971 ft | 450 kts | 270° |
| 2026-04-27 22:00 | 22.33091 | 117.39355 | 31322 ft | 453 kts | 271° |
| 2026-04-27 22:00 | 22.33072 | 117.35948 | 31684 ft | 455 kts | 271° |
| 2026-04-27 22:01 | 22.33046 | 117.32520 | 32040 ft | 458 kts | 270° |
| 2026-04-27 22:01 | 22.32999 | 117.29062 | 32418 ft | 461 kts | 270° |
| 2026-04-27 22:01 | 22.32938 | 117.25590 | 32782 ft | 464 kts | 270° |
| 2026-04-27 22:01 | 22.32874 | 117.22098 | 33157 ft | 467 kts | 270° |
| 2026-04-27 22:02 | 22.32811 | 117.18584 | 33546 ft | 470 kts | 270° |
| 2026-04-27 22:02 | 22.32748 | 117.15039 | 33932 ft | 473 kts | 270° |
| 2026-04-27 22:02 | 22.32684 | 117.11490 | 34274 ft | 473 kts | 270° |
| 2026-04-27 22:02 | 22.32618 | 117.07990 | 34616 ft | 472 kts | 270° |
| 2026-04-27 22:03 | 22.32549 | 117.04450 | 34958 ft | 470 kts | 270° |
| 2026-04-27 22:03 | 22.32480 | 117.00937 | 35305 ft | 468 kts | 270° |
| 2026-04-27 22:03 | 22.32410 | 116.97427 | 35669 ft | 466 kts | 270° |
| 2026-04-27 22:03 | 22.32341 | 116.93944 | 36030 ft | 464 kts | 270° |
| 2026-04-27 22:04 | 22.32272 | 116.90462 | 36403 ft | 462 kts | 270° |
| 2026-04-27 22:04 | 22.32202 | 116.87014 | 36777 ft | 460 kts | 270° |
| 2026-04-27 22:04 | 22.32132 | 116.83612 | 37160 ft | 458 kts | 270° |
| 2026-04-27 22:04 | 22.32061 | 116.80179 | 37535 ft | 456 kts | 269° |
| 2026-04-27 22:05 | 22.31990 | 116.76759 | 37760 ft | 456 kts | 269° |
| 2026-04-27 22:05 | 22.31917 | 116.73333 | 37878 ft | 456 kts | 269° |
| 2026-04-27 22:05 | 22.31844 | 116.69904 | 37905 ft | 456 kts | 269° |
| 2026-04-27 22:06 | 22.31697 | 116.63054 | 37926 ft | 456 kts | 269° |
| 2026-04-27 22:06 | 22.31545 | 116.56198 | 37933 ft | 456 kts | 269° |
| 2026-04-27 22:07 | 22.31391 | 116.49366 | 37926 ft | 455 kts | 269° |
| 2026-04-27 22:07 | 22.31236 | 116.42589 | 37926 ft | 455 kts | 269° |
| 2026-04-27 22:08 | 22.31077 | 116.35759 | 37926 ft | 455 kts | 269° |
| 2026-04-27 22:08 | 22.30915 | 116.28926 | 37927 ft | 455 kts | 269° |
| 2026-04-27 22:09 | 22.30751 | 116.22111 | 37921 ft | 453 kts | 269° |
| 2026-04-27 22:09 | 22.30587 | 116.15364 | 37921 ft | 453 kts | 269° |
| 2026-04-27 22:10 | 22.30416 | 116.08564 | 37919 ft | 453 kts | 269° |
| 2026-04-27 22:10 | 22.30244 | 116.01761 | 37534 ft | 456 kts | 269° |
| 2026-04-27 22:10 | 22.30156 | 115.98330 | 37125 ft | 458 kts | 269° |
| 2026-04-27 22:11 | 22.30068 | 115.94928 | 36759 ft | 459 kts | 269° |
| 2026-04-27 22:11 | 22.29979 | 115.91484 | 36377 ft | 460 kts | 269° |
| 2026-04-27 22:11 | 22.29888 | 115.88032 | 36008 ft | 462 kts | 269° |
| 2026-04-27 22:11 | 22.29796 | 115.84553 | 35637 ft | 463 kts | 269° |
| 2026-04-27 22:12 | 22.29685 | 115.81072 | 35283 ft | 464 kts | 268° |
| 2026-04-27 22:12 | 22.29542 | 115.77600 | 34937 ft | 463 kts | 268° |
| 2026-04-27 22:12 | 22.29382 | 115.74128 | 34589 ft | 463 kts | 268° |
| 2026-04-27 22:12 | 22.29231 | 115.70696 | 34243 ft | 456 kts | 268° |
| 2026-04-27 22:13 | 22.29096 | 115.67354 | 33901 ft | 436 kts | 268° |
| 2026-04-27 22:13 | 22.28974 | 115.64119 | 33516 ft | 428 kts | 269° |
| 2026-04-27 22:13 | 22.28857 | 115.60922 | 33132 ft | 424 kts | 268° |
| 2026-04-27 22:13 | 22.28771 | 115.57754 | 32752 ft | 421 kts | 272° |
| 2026-04-27 22:14 | 22.29084 | 115.54620 | 32412 ft | 418 kts | 282° |
| 2026-04-27 22:14 | 22.29899 | 115.51616 | 32127 ft | 418 kts | 291° |
| 2026-04-27 22:14 | 22.31189 | 115.48813 | 31828 ft | 418 kts | 300° |
| 2026-04-27 22:14 | 22.32925 | 115.46289 | 31543 ft | 420 kts | 310° |
| 2026-04-27 22:15 | 22.35057 | 115.44126 | 31250 ft | 422 kts | 320° |
| 2026-04-27 22:15 | 22.37485 | 115.42418 | 30977 ft | 424 kts | 329° |
| 2026-04-27 22:15 | 22.40208 | 115.41171 | 30704 ft | 427 kts | 339° |
| 2026-04-27 22:15 | 22.43112 | 115.40457 | 30430 ft | 431 kts | 349° |
| 2026-04-27 22:16 | 22.46124 | 115.40304 | 30157 ft | 434 kts | 359° |
| 2026-04-27 22:16 | 22.49124 | 115.40727 | 29848 ft | 438 kts | 9° |
| 2026-04-27 22:16 | 22.52012 | 115.41709 | 29539 ft | 440 kts | 19° |
| 2026-04-27 22:16 | 22.54734 | 115.43242 | 29209 ft | 443 kts | 30° |
| 2026-04-27 22:17 | 22.57183 | 115.45281 | 28918 ft | 446 kts | 40° |
| 2026-04-27 22:17 | 22.59272 | 115.47769 | 28609 ft | 448 kts | 51° |
| 2026-04-27 22:17 | 22.60928 | 115.50621 | 28310 ft | 450 kts | 62° |
| 2026-04-27 22:17 | 22.62091 | 115.53735 | 28012 ft | 450 kts | 72° |
| 2026-04-27 22:18 | 22.62731 | 115.57038 | 27692 ft | 449 kts | 83° |
| 2026-04-27 22:18 | 22.62814 | 115.60405 | 27403 ft | 447 kts | 94° |
| 2026-04-27 22:18 | 22.62336 | 115.63718 | 27099 ft | 444 kts | 105° |
| 2026-04-27 22:18 | 22.61316 | 115.66842 | 26881 ft | 440 kts | 117° |
| 2026-04-27 22:19 | 22.59786 | 115.69691 | 26638 ft | 436 kts | 128° |
| 2026-04-27 22:19 | 22.57826 | 115.72133 | 26391 ft | 431 kts | 140° |
| 2026-04-27 22:19 | 22.55469 | 115.74128 | 26155 ft | 425 kts | 151° |
| 2026-04-27 22:19 | 22.52893 | 115.75538 | 25920 ft | 418 kts | 162° |
| 2026-04-27 22:20 | 22.50118 | 115.76371 | 25669 ft | 411 kts | 174° |
| 2026-04-27 22:20 | 22.47289 | 115.76577 | 25434 ft | 405 kts | 186° |
| 2026-04-27 22:20 | 22.44497 | 115.76148 | 25221 ft | 412 kts | 198° |
| 2026-04-27 22:20 | 22.41800 | 115.75113 | 24977 ft | 415 kts | 208° |
| 2026-04-27 22:21 | 22.39313 | 115.73528 | 24756 ft | 412 kts | 219° |
| 2026-04-27 22:21 | 22.37193 | 115.71507 | 24532 ft | 409 kts | 229° |
| 2026-04-27 22:21 | 22.35459 | 115.69070 | 24312 ft | 405 kts | 240° |
| 2026-04-27 22:21 | 22.34226 | 115.66393 | 24087 ft | 402 kts | 250° |
| 2026-04-27 22:22 | 22.33452 | 115.63503 | 23878 ft | 401 kts | 258° |
| 2026-04-27 22:22 | 22.32974 | 115.60542 | 23662 ft | 399 kts | 262° |
| 2026-04-27 22:22 | 22.32650 | 115.57570 | 23434 ft | 398 kts | 264° |
| 2026-04-27 22:22 | 22.32406 | 115.54595 | 23173 ft | 397 kts | 265° |
| 2026-04-27 22:23 | 22.32123 | 115.51638 | 22907 ft | 395 kts | 261° |
| 2026-04-27 22:23 | 22.31646 | 115.48724 | 22655 ft | 394 kts | 260° |
| 2026-04-27 22:23 | 22.31191 | 115.45843 | 22396 ft | 392 kts | 261° |
| 2026-04-27 22:23 | 22.30803 | 115.42949 | 22134 ft | 391 kts | 262° |
| 2026-04-27 22:24 | 22.30435 | 115.40036 | 21896 ft | 389 kts | 262° |
| 2026-04-27 22:24 | 22.30063 | 115.37148 | 21647 ft | 388 kts | 262° |
| 2026-04-27 22:24 | 22.29683 | 115.34273 | 21403 ft | 387 kts | 262° |
| 2026-04-27 22:24 | 22.29300 | 115.31399 | 21153 ft | 385 kts | 262° |
| 2026-04-27 22:25 | 22.28920 | 115.28542 | 20912 ft | 383 kts | 262° |
| 2026-04-27 22:25 | 22.28544 | 115.25710 | 20661 ft | 381 kts | 262° |
| 2026-04-27 22:25 | 22.28168 | 115.22876 | 20417 ft | 379 kts | 262° |
| 2026-04-27 22:25 | 22.27796 | 115.20064 | 20187 ft | 378 kts | 262° |
| 2026-04-27 22:26 | 22.27425 | 115.17275 | 20009 ft | 385 kts | 262° |
| 2026-04-27 22:26 | 22.27012 | 115.14407 | 19821 ft | 387 kts | 260° |
| 2026-04-27 22:26 | 22.26522 | 115.11549 | 19641 ft | 387 kts | 259° |
| 2026-04-27 22:26 | 22.25999 | 115.08702 | 19440 ft | 387 kts | 259° |
| 2026-04-27 22:27 | 22.25482 | 115.05855 | 19263 ft | 386 kts | 259° |
| 2026-04-27 22:27 | 22.24981 | 115.03022 | 19083 ft | 385 kts | 259° |
| 2026-04-27 22:27 | 22.24483 | 115.00189 | 18955 ft | 384 kts | 259° |
| 2026-04-27 22:27 | 22.23987 | 114.97396 | 18820 ft | 383 kts | 259° |
| 2026-04-27 22:28 | 22.23522 | 114.94564 | 18694 ft | 383 kts | 262° |
| 2026-04-27 22:28 | 22.23318 | 114.91706 | 18554 ft | 382 kts | 268° |
| 2026-04-27 22:28 | 22.23299 | 114.88827 | 18414 ft | 382 kts | 269° |
| 2026-04-27 22:28 | 22.23279 | 114.85963 | 18285 ft | 381 kts | 268° |
| 2026-04-27 22:29 | 22.23209 | 114.83110 | 18141 ft | 380 kts | 267° |
| 2026-04-27 22:29 | 22.23124 | 114.80295 | 17988 ft | 379 kts | 268° |
| 2026-04-27 22:29 | 22.23058 | 114.77506 | 17826 ft | 360 kts | 268° |
| 2026-04-27 22:29 | 22.23020 | 114.74907 | 17593 ft | 335 kts | 268° |
| 2026-04-27 22:30 | 22.22994 | 114.72458 | 17248 ft | 318 kts | 268° |
| 2026-04-27 22:30 | 22.22966 | 114.70096 | 16774 ft | 312 kts | 268° |
| 2026-04-27 22:30 | 22.22935 | 114.67766 | 16322 ft | 309 kts | 268° |
| 2026-04-27 22:30 | 22.22904 | 114.65456 | 15892 ft | 307 kts | 268° |
| 2026-04-27 22:31 | 22.22873 | 114.63162 | 15459 ft | 305 kts | 268° |
| 2026-04-27 22:31 | 22.22844 | 114.60877 | 15032 ft | 303 kts | 268° |
| 2026-04-27 22:31 | 22.22817 | 114.58641 | 14618 ft | 302 kts | 268° |
| 2026-04-27 22:31 | 22.22789 | 114.56384 | 14201 ft | 300 kts | 268° |
| 2026-04-27 22:32 | 22.22760 | 114.54141 | 13795 ft | 298 kts | 268° |
| 2026-04-27 22:32 | 22.22727 | 114.51913 | 13342 ft | 296 kts | 268° |
| 2026-04-27 22:32 | 22.22693 | 114.49695 | 12892 ft | 295 kts | 268° |
| 2026-04-27 22:32 | 22.22661 | 114.47490 | 12437 ft | 293 kts | 268° |
| 2026-04-27 22:33 | 22.22631 | 114.45290 | 11990 ft | 292 kts | 268° |
| 2026-04-27 22:33 | 22.22601 | 114.43111 | 11560 ft | 290 kts | 268° |
| 2026-04-27 22:33 | 22.22572 | 114.40938 | 11121 ft | 289 kts | 268° |
| 2026-04-27 22:33 | 22.22543 | 114.38797 | 10701 ft | 288 kts | 267° |
| 2026-04-27 22:34 | 22.22513 | 114.36614 | 10282 ft | 286 kts | 267° |
| 2026-04-27 22:34 | 22.22483 | 114.34502 | 9874 ft | 285 kts | 267° |
| 2026-04-27 22:34 | 22.22453 | 114.32364 | 9418 ft | 284 kts | 267° |
| 2026-04-27 22:34 | 22.22423 | 114.30245 | 8965 ft | 282 kts | 267° |
| 2026-04-27 22:35 | 22.22392 | 114.28129 | 8520 ft | 281 kts | 267° |
| 2026-04-27 22:35 | 22.22362 | 114.26034 | 8215 ft | 278 kts | 267° |
| 2026-04-27 22:35 | 22.22332 | 114.23942 | 8078 ft | 279 kts | 267° |
| 2026-04-27 22:35 | 22.22304 | 114.21925 | 8025 ft | 262 kts | 267° |
| 2026-04-27 22:36 | 22.22280 | 114.20043 | 8006 ft | 241 kts | 267° |
| 2026-04-27 22:36 | 22.22256 | 114.18265 | 7963 ft | 236 kts | 266° |
| 2026-04-27 22:36 | 22.22227 | 114.16496 | 7815 ft | 236 kts | 266° |
| 2026-04-27 22:36 | 22.22196 | 114.14723 | 7539 ft | 236 kts | 266° |
| 2026-04-27 22:37 | 22.22167 | 114.12961 | 7248 ft | 234 kts | 266° |
| 2026-04-27 22:37 | 22.22140 | 114.11210 | 6962 ft | 233 kts | 266° |
| 2026-04-27 22:37 | 22.22113 | 114.09462 | 6689 ft | 233 kts | 266° |
| 2026-04-27 22:37 | 22.22086 | 114.07717 | 6404 ft | 232 kts | 266° |
| 2026-04-27 22:38 | 22.22058 | 114.05981 | 6184 ft | 230 kts | 267° |
| 2026-04-27 22:38 | 22.22243 | 114.04290 | 6031 ft | 233 kts | 288° |
| 2026-04-27 22:38 | 22.23022 | 114.02774 | 6048 ft | 233 kts | 300° |
| 2026-04-27 22:38 | 22.23908 | 114.01292 | 6179 ft | 236 kts | 293° |
| 2026-04-27 22:39 | 22.24337 | 113.99620 | 6291 ft | 230 kts | 269° |
| 2026-04-27 22:39 | 22.24070 | 113.97947 | 6433 ft | 226 kts | 246° |
| 2026-04-27 22:39 | 22.23300 | 113.96477 | 6549 ft | 227 kts | 233° |
| 2026-04-27 22:39 | 22.22334 | 113.95114 | 6437 ft | 229 kts | 230° |
| 2026-04-27 22:40 | 22.21341 | 113.93791 | 6264 ft | 226 kts | 232° |
| 2026-04-27 22:40 | 22.20573 | 113.92311 | 6120 ft | 227 kts | 246° |
| 2026-04-27 22:40 | 22.20135 | 113.90700 | 6033 ft | 228 kts | 256° |
| 2026-04-27 22:40 | 22.19900 | 113.88989 | 5798 ft | 231 kts | 262° |
| 2026-04-27 22:41 | 22.19875 | 113.87264 | 5662 ft | 228 kts | 272° |
| 2026-04-27 22:41 | 22.20226 | 113.85593 | 5845 ft | 231 kts | 290° |
| 2026-04-27 22:41 | 22.21081 | 113.84127 | 6346 ft | 233 kts | 310° |
| 2026-04-27 22:41 | 22.22342 | 113.83044 | 7256 ft | 234 kts | 328° |
| 2026-04-27 22:42 | 22.23903 | 113.82365 | 8029 ft | 249 kts | 341° |
| 2026-04-27 22:42 | 22.25641 | 113.82115 | 8172 ft | 256 kts | 2° |
| 2026-04-27 22:42 | 22.27395 | 113.82531 | 7842 ft | 262 kts | 22° |
| 2026-04-27 22:42 | 22.28907 | 113.83577 | 7342 ft | 265 kts | 47° |
| 2026-04-27 22:43 | 22.29988 | 113.85138 | 7092 ft | 254 kts | 57° |
| 2026-04-27 22:43 | 22.30967 | 113.86701 | 6897 ft | 247 kts | 58° |
| 2026-04-27 22:43 | 22.31836 | 113.88288 | 6778 ft | 246 kts | 68° |
| 2026-04-27 22:43 | 22.32151 | 113.90073 | 6563 ft | 242 kts | 94° |
| 2026-04-27 22:44 | 22.32020 | 113.91883 | 6298 ft | 240 kts | 98° |
| 2026-04-27 22:44 | 22.31852 | 113.93633 | 6054 ft | 231 kts | 99° |
| 2026-04-27 22:44 | 22.31752 | 113.95360 | 5579 ft | 226 kts | 92° |
| 2026-04-27 22:44 | 22.31846 | 113.97002 | 5212 ft | 217 kts | 87° |
| 2026-04-27 22:45 | 22.32033 | 113.98568 | 4695 ft | 204 kts | 85° |
| 2026-04-27 22:45 | 22.32197 | 114.00054 | 4194 ft | 196 kts | 88° |
| 2026-04-27 22:45 | 22.32292 | 114.01504 | 3811 ft | 194 kts | 90° |
| 2026-04-27 22:45 | 22.32306 | 114.02944 | 3471 ft | 188 kts | 92° |
| 2026-04-27 22:46 | 22.32328 | 114.04331 | 3450 ft | 187 kts | 92° |
| 2026-04-27 22:46 | 22.32376 | 114.05744 | 3251 ft | 188 kts | 91° |
| 2026-04-27 22:46 | 22.32510 | 114.07155 | 3016 ft | 188 kts | 87° |
| 2026-04-27 22:46 | 22.32656 | 114.08534 | 2512 ft | 185 kts | 86° |
| 2026-04-27 22:47 | 22.32777 | 114.09871 | 2100 ft | 170 kts | 87° |
| 2026-04-27 22:47 | 22.32807 | 114.11070 | 1842 ft | 151 kts | 91° |
| 2026-04-27 22:47 | 22.32762 | 114.12182 | 1437 ft | 147 kts | 94° |
| 2026-04-27 22:47 | 22.32700 | 114.13245 | 1235 ft | 139 kts | 94° |
| 2026-04-27 22:48 | 22.32717 | 114.14302 | 1208 ft | 141 kts | 87° |
| 2026-04-27 22:48 | 22.32797 | 114.15365 | 1065 ft | 143 kts | 86° |
| 2026-04-27 22:48 | 22.32894 | 114.16428 | 923 ft | 144 kts | 84° |
| 2026-04-27 22:48 | 22.33059 | 114.17473 | 661 ft | 141 kts | 82° |
| 2026-04-27 22:49 | 22.32987 | 114.18529 | 419 ft | 144 kts | 104° |
| 2026-04-27 22:49 | 22.32406 | 114.19403 | 175 ft | 145 kts | 136° |
| 2026-04-27 22:49 | 22.31754 | 114.20125 | 36 ft | 120 kts | 133° |
| 2026-04-27 22:49 | 22.31234 | 114.20660 | 36 ft | 76 kts | 130° |
| 2026-04-27 22:50 | 22.31000 | 114.20963 | 37 ft | 39 kts | 133° |
| 2026-04-27 22:50 | 22.30841 | 114.21154 | 37 ft | 24 kts | 114° |
| 2026-04-27 22:50 | 22.30857 | 114.21243 | 37 ft | 11 kts | 15° |
| 2026-04-27 22:50 | 22.30924 | 114.21199 | 36 ft | 13 kts | 315° |
| 2026-04-27 22:51 | 22.30999 | 114.21117 | 38 ft | 18 kts | 315° |
| 2026-04-27 22:51 | 22.31097 | 114.21009 | 37 ft | 23 kts | 314° |
| 2026-04-27 22:51 | 22.31216 | 114.20876 | 38 ft | 27 kts | 314° |
| 2026-04-27 22:51 | 22.31353 | 114.20720 | 37 ft | 30 kts | 315° |
| 2026-04-27 22:52 | 22.31510 | 114.20549 | 35 ft | 34 kts | 313° |
| 2026-04-27 22:52 | 22.31678 | 114.20356 | 37 ft | 36 kts | 315° |
| 2026-04-27 22:52 | 22.31821 | 114.20197 | 35 ft | 20 kts | 313° |
| 2026-04-27 22:52 | 22.31930 | 114.20075 | 36 ft | 25 kts | 315° |
| 2026-04-27 22:53 | 22.32062 | 114.19931 | 37 ft | 29 kts | 313° |
| 2026-04-27 22:53 | 22.32192 | 114.19783 | 37 ft | 21 kts | 314° |
| 2026-04-27 22:53 | 22.32305 | 114.19658 | 37 ft | 26 kts | 314° |
| 2026-04-27 22:53 | 22.32412 | 114.19547 | 37 ft | 18 kts | 318° |
| 2026-04-27 22:54 | 22.32516 | 114.19447 | 35 ft | 19 kts | 323° |
| 2026-04-27 22:54 | 22.32569 | 114.19437 | 38 ft | 6 kts | 22° |
| 2026-04-27 22:54 | 22.32616 | 114.19478 | 38 ft | 11 kts | 39° |
| 2026-04-27 22:54 | 22.32668 | 114.19511 | 38 ft | 8 kts | 8° |
| 2026-04-27 22:55 | 22.32716 | 114.19488 | 38 ft | 4 kts | 316° |
| 2026-04-27 22:55 | 22.32741 | 114.19461 | 38 ft | 3 kts | 316° |
| 2026-04-27 22:55 | 22.32756 | 114.19445 | 38 ft | 0 kts | 316° |